Time;durP1;ratioP1;P1;durP2;ratioP2;P2;SDS_P1;SDS_P2;PMS_P1;PMS_P2;Temp;Humidity;BMP_temperature;BMP_pressure;BME280_temperature;BME280_humidity;BME280_pressure;Samples;Min_cycle;Max_cycle;Signal;HPM_P1;HPM_P2
2022/03/30 00:01:41;;;;;;;0.10;0.10;;;9.10;1.00;226.50;231333.00;;;;5043939;28;20217;-72
2022/03/30 00:04:09;;;;;;;0.10;0.10;;;9.20;1.00;226.50;231333.00;;;;5043340;28;20211;-72
2022/03/30 00:06:37;;;;;;;0.10;0.10;;;9.10;1.00;226.50;231333.00;;;;5041602;28;20199;-72
2022/03/30 00:09:08;;;;;;;0.10;0.10;;;9.00;1.00;226.50;231333.00;;;;5041940;28;20205;-72
2022/03/30 00:11:36;;;;;;;0.10;0.10;;;9.00;1.00;226.50;231333.00;;;;5043087;28;20202;-72
2022/03/30 00:14:05;;;;;;;0.10;0.10;;;9.00;1.00;226.50;231333.00;;;;5035588;28;20242;-73
2022/03/30 00:16:34;;;;;;;0.10;0.10;;;9.10;4.50;226.50;231333.00;;;;5024632;28;20202;-72
2022/03/30 00:19:02;;;;;;;0.10;0.10;;;9.10;1.00;226.50;231333.00;;;;5032343;28;20226;-72
2022/03/30 00:21:31;;;;;;;0.10;0.10;;;9.10;25.20;226.50;231333.00;;;;5033367;28;20195;-72
2022/03/30 00:23:59;;;;;;;0.10;0.10;;;9.00;72.60;226.50;231333.00;;;;5034466;28;20226;-71
2022/03/30 00:26:29;;;;;;;0.10;0.10;;;9.00;90.20;226.50;231333.00;;;;5034791;28;20191;-71
2022/03/30 00:28:59;;;;;;;0.00;0.00;;;9.00;99.90;226.50;231333.00;;;;5037280;28;20601;-71
2022/03/30 00:31:26;;;;;;;0.10;0.10;;;9.00;99.90;226.50;231333.00;;;;5036390;28;20191;-72
2022/03/30 00:33:55;;;;;;;0.10;0.10;;;9.00;99.90;226.50;231333.00;;;;5035691;28;20235;-72
2022/03/30 00:36:23;;;;;;;0.10;0.10;;;9.00;99.90;226.50;231333.00;;;;5035845;28;20187;-71
2022/03/30 00:38:51;;;;;;;0.10;0.10;;;8.90;99.90;226.50;231333.00;;;;5039085;28;20230;-72
2022/03/30 00:41:19;;;;;;;0.10;0.10;;;9.00;99.90;226.50;231333.00;;;;5026097;28;20207;-71
2022/03/30 00:43:49;;;;;;;0.10;0.10;;;8.90;99.90;226.50;231333.00;;;;5032779;28;20305;-71
2022/03/30 00:46:17;;;;;;;0.00;0.00;;;8.90;99.90;226.50;231333.00;;;;5031397;28;20194;-71
2022/03/30 00:48:46;;;;;;;0.00;0.00;;;8.90;99.90;226.50;231333.00;;;;5034236;28;20561;-72
2022/03/30 00:51:14;;;;;;;0.10;0.10;;;8.90;99.90;226.50;231333.00;;;;5028064;28;20203;-73
2022/03/30 00:53:42;;;;;;;0.10;0.10;;;9.00;99.90;226.50;231333.00;;;;5030339;28;20219;-72
2022/03/30 00:56:10;;;;;;;0.00;0.00;;;9.00;99.90;226.50;231333.00;;;;5031454;28;20202;-73
2022/03/30 00:58:38;;;;;;;0.10;0.10;;;9.00;99.90;226.50;231333.00;;;;5029414;28;20210;-73
2022/03/30 01:01:08;;;;;;;0.10;0.10;;;8.90;99.90;226.50;231333.00;;;;5030600;28;20199;-73
2022/03/30 01:03:36;;;;;;;0.10;0.10;;;8.80;99.90;226.50;231333.00;;;;5030455;28;20242;-73
2022/03/30 01:06:04;;;;;;;0.10;0.10;;;8.80;99.90;226.50;231333.00;;;;5033439;28;20680;-74
2022/03/30 01:08:35;;;;;;;0.10;0.10;;;8.90;99.90;226.50;231333.00;;;;5033756;28;20213;-74
2022/03/30 01:11:03;;;;;;;0.10;0.10;;;8.90;99.90;226.50;231333.00;;;;5031619;28;20227;-74
2022/03/30 01:13:32;;;;;;;0.10;0.10;;;8.80;99.90;226.50;231333.00;;;;5034612;28;20225;-72
2022/03/30 01:16:23;;;;;;;0.10;0.10;;;8.80;99.90;226.50;231333.00;;;;5036373;28;20206;-73
2022/03/30 01:19:04;;;;;;;0.10;0.10;;;8.70;99.90;226.50;231333.00;;;;5037554;28;20847;-72
2022/03/30 01:21:34;;;;;;;0.10;0.10;;;8.70;1.00;226.50;231333.00;;;;5041606;28;20221;-73
2022/03/30 01:24:02;;;;;;;0.10;0.10;;;8.70;1.00;226.50;231333.00;;;;5038091;28;20207;-72
2022/03/30 01:26:30;;;;;;;0.10;0.10;;;8.60;1.00;226.50;231333.00;;;;5040497;28;20206;-72
2022/03/30 01:28:59;;;;;;;0.10;0.10;;;8.50;1.00;226.50;231333.00;;;;5042823;28;20231;-72
2022/03/30 01:34:13;;;;;;;0.10;0.10;;;8.40;1.00;226.50;231333.00;;;;5035052;28;20264;-71
2022/03/30 01:36:43;;;;;;;0.10;0.10;;;8.40;1.00;226.50;231333.00;;;;5041141;28;20539;-72
2022/03/30 01:39:12;;;;;;;0.10;0.10;;;8.40;1.00;226.50;231333.00;;;;5034413;28;20421;-72
2022/03/30 01:41:40;;;;;;;0.10;0.10;;;8.40;1.00;226.50;231333.00;;;;5034613;28;20691;-71
2022/03/30 01:44:08;;;;;;;0.10;0.10;;;8.40;1.00;226.50;231333.00;;;;5029483;28;20746;-71
2022/03/30 01:46:39;;;;;;;0.05;0.05;;;8.40;1.00;226.50;231333.00;;;;5033027;28;20657;-71
2022/03/30 01:49:07;;;;;;;0.10;0.10;;;8.40;1.00;226.50;231333.00;;;;5034437;28;20198;-71
2022/03/30 01:51:35;;;;;;;0.10;0.10;;;8.40;1.00;226.50;231333.00;;;;5034185;28;20195;-72
2022/03/30 01:54:04;;;;;;;0.10;0.10;;;8.30;1.00;226.50;231333.00;;;;5034508;28;20218;-71
2022/03/30 01:56:33;;;;;;;0.00;0.00;;;8.30;4.60;226.50;231333.00;;;;5033116;28;20195;-71
2022/03/30 01:59:00;;;;;;;0.10;0.10;;;8.30;4.50;226.50;231333.00;;;;5031246;28;20233;-72
2022/03/30 02:01:28;;;;;;;0.08;0.08;;;8.30;35.60;226.50;231333.00;;;;5033631;28;20214;-72
2022/03/30 02:04:00;;;;;;;0.10;0.10;;;8.30;66.90;226.50;231333.00;;;;5032323;28;20223;-73
2022/03/30 02:06:28;;;;;;;0.10;0.10;;;8.30;96.10;226.50;231333.00;;;;5032977;28;20219;-72
2022/03/30 02:08:56;;;;;;;0.10;0.10;;;8.30;90.90;226.50;231333.00;;;;5032179;28;20561;-71
2022/03/30 02:11:26;;;;;;;0.10;0.10;;;8.30;99.90;226.50;231333.00;;;;5029643;28;20194;-71
2022/03/30 02:13:55;;;;;;;0.10;0.10;;;8.20;99.90;226.50;231333.00;;;;5031597;28;20866;-72
2022/03/30 02:16:23;;;;;;;0.00;0.00;;;8.10;99.90;226.50;231333.00;;;;5032017;28;20191;-71
2022/03/30 02:18:52;;;;;;;0.03;0.03;;;8.10;99.90;226.50;231333.00;;;;5032294;28;20631;-71
2022/03/30 02:21:21;;;;;;;0.10;0.10;;;8.10;99.90;226.50;231333.00;;;;5032527;28;20195;-71
2022/03/30 02:23:49;;;;;;;0.10;0.10;;;8.10;99.90;226.50;231333.00;;;;5029911;28;20226;-71
2022/03/30 02:26:18;;;;;;;0.10;0.10;;;8.10;99.90;226.50;231333.00;;;;5032649;28;20194;-72
2022/03/30 02:28:51;;;;;;;0.10;0.10;;;8.10;99.90;226.50;231333.00;;;;5029910;28;20665;-73
2022/03/30 02:31:19;;;;;;;0.10;0.10;;;8.10;99.90;226.50;231333.00;;;;5032568;28;20191;-72
2022/03/30 02:33:48;;;;;;;0.10;0.10;;;8.20;99.90;226.50;231333.00;;;;5032104;28;20223;-72
2022/03/30 02:36:17;;;;;;;0.10;0.10;;;8.20;99.90;226.50;231333.00;;;;5032260;28;20257;-72
2022/03/30 02:38:47;;;;;;;0.00;0.00;;;8.20;99.90;226.50;231333.00;;;;5031572;28;20207;-70
2022/03/30 02:41:15;;;;;;;0.00;0.00;;;8.20;99.90;226.50;231333.00;;;;5032657;28;20742;-68
2022/03/30 02:43:42;;;;;;;0.10;0.10;;;8.20;99.90;226.50;231333.00;;;;5032139;28;20226;-69
2022/03/30 02:46:12;;;;;;;0.10;0.10;;;8.20;99.90;226.50;231333.00;;;;5025068;28;20195;-70
2022/03/30 02:48:40;;;;;;;0.10;0.10;;;8.30;99.90;226.50;231333.00;;;;5031719;28;20187;-71
2022/03/30 02:51:09;;;;;;;0.00;0.00;;;8.30;99.90;226.50;231333.00;;;;5032334;28;20573;-71
2022/03/30 02:53:37;;;;;;;0.10;0.10;;;8.20;99.90;226.50;231333.00;;;;5031889;28;20215;-71
2022/03/30 02:56:06;;;;;;;0.10;0.10;;;8.20;99.90;226.50;231333.00;;;;5031710;28;20198;-71
2022/03/30 02:58:34;;;;;;;0.10;0.10;;;8.20;99.90;226.50;231333.00;;;;5028689;28;20202;-71
2022/03/30 03:01:03;;;;;;;0.10;0.10;;;8.20;99.90;226.50;231333.00;;;;5031762;28;20215;-71
2022/03/30 03:03:32;;;;;;;0.10;0.10;;;8.20;99.90;226.50;231333.00;;;;5030451;28;20704;-71
2022/03/30 03:06:00;;;;;;;0.10;0.10;;;8.20;99.90;226.50;231333.00;;;;5030767;28;20195;-71
2022/03/30 03:08:28;;;;;;;0.10;0.10;;;8.20;99.90;226.50;231333.00;;;;5031688;28;20195;-71
2022/03/30 03:10:57;;;;;;;0.10;0.10;;;8.20;99.90;226.50;231333.00;;;;5025195;28;20199;-71
2022/03/30 03:13:25;;;;;;;0.10;0.10;;;8.20;99.90;226.50;231333.00;;;;5031296;28;20243;-72
2022/03/30 03:15:53;;;;;;;0.10;0.10;;;8.20;99.90;226.50;231333.00;;;;5030830;28;20664;-71
2022/03/30 03:18:21;;;;;;;0.10;0.10;;;8.10;99.90;226.50;231333.00;;;;5031379;28;20558;-72
2022/03/30 03:20:51;;;;;;;0.10;0.10;;;8.00;99.90;226.50;231333.00;;;;5031090;28;20219;-72
2022/03/30 03:23:19;;;;;;;0.10;0.10;;;8.00;99.90;226.50;231333.00;;;;5030978;28;20548;-72
2022/03/30 03:25:47;;;;;;;0.10;0.10;;;8.00;99.90;226.50;231333.00;;;;5030988;28;20599;-73
2022/03/30 03:28:16;;;;;;;0.10;0.10;;;7.90;99.90;226.50;231333.00;;;;5026881;28;20643;-72
2022/03/30 03:30:44;;;;;;;0.10;0.10;;;7.90;64.90;226.50;231333.00;;;;5032025;28;20210;-73
2022/03/30 03:33:12;;;;;;;0.03;0.03;;;7.80;1.00;226.50;231333.00;;;;5031768;28;20210;-72
2022/03/30 03:35:40;;;;;;;0.10;0.10;;;7.80;1.00;226.50;231333.00;;;;5031704;28;20191;-71
2022/03/30 03:38:10;;;;;;;0.10;0.10;;;7.80;1.00;226.50;231333.00;;;;5026470;28;20196;-71
2022/03/30 03:40:40;;;;;;;0.00;0.00;;;7.70;1.00;226.50;231333.00;;;;5025532;28;20234;-71
2022/03/30 03:43:09;;;;;;;0.10;0.10;;;7.80;1.00;226.50;231333.00;;;;5029125;28;20223;-71
2022/03/30 03:45:38;;;;;;;0.10;0.10;;;7.80;1.00;226.50;231333.00;;;;5030468;28;20203;-73
2022/03/30 03:48:07;;;;;;;0.10;0.10;;;7.80;1.00;226.50;231333.00;;;;5030703;28;20528;-72
2022/03/30 03:50:35;;;;;;;0.10;0.10;;;7.80;1.00;226.50;231333.00;;;;5030743;28;20198;-73
2022/03/30 03:53:03;;;;;;;0.10;0.10;;;7.70;1.00;226.50;231333.00;;;;5026749;28;20222;-73
2022/03/30 03:55:36;;;;;;;0.10;0.10;;;7.70;1.00;226.50;231333.00;;;;5027771;28;20230;-74
2022/03/30 03:58:05;;;;;;;0.10;0.10;;;7.70;1.00;226.50;231333.00;;;;5020715;28;20237;-72
2022/03/30 04:00:34;;;;;;;0.10;0.10;;;7.60;1.00;226.50;231333.00;;;;5026515;28;20217;-73
2022/03/30 04:03:03;;;;;;;0.10;0.10;;;7.60;28.10;226.50;231333.00;;;;5030758;28;20719;-73
2022/03/30 04:05:32;;;;;;;0.10;0.10;;;7.60;50.00;226.50;231333.00;;;;5043544;28;20203;-74
2022/03/30 04:08:00;;;;;;;0.00;0.00;;;7.70;1.00;226.50;231333.00;;;;5030400;28;20191;-73
2022/03/30 04:10:28;;;;;;;0.10;0.10;;;7.70;1.00;226.50;231333.00;;;;5028950;28;20199;-73
2022/03/30 04:12:58;;;;;;;0.10;0.10;;;7.70;1.00;226.50;231333.00;;;;5026121;28;20249;-72
2022/03/30 04:15:26;;;;;;;0.10;0.10;;;7.70;1.00;226.50;231333.00;;;;5028633;28;20195;-74
2022/03/30 04:17:55;;;;;;;0.10;0.10;;;7.60;1.00;226.50;231333.00;;;;5028523;28;20229;-75
2022/03/30 04:20:23;;;;;;;0.08;0.08;;;7.50;1.00;226.50;231333.00;;;;5024298;28;20246;-73
2022/03/30 04:22:51;;;;;;;0.05;0.05;;;7.40;29.60;226.50;231333.00;;;;5023598;28;20222;-74
2022/03/30 04:25:19;;;;;;;0.10;0.10;;;7.40;97.10;226.50;231333.00;;;;5029644;28;20199;-72
2022/03/30 04:27:50;;;;;;;0.10;0.10;;;7.40;99.90;226.50;231333.00;;;;5030114;28;20652;-72
2022/03/30 04:30:21;;;;;;;0.10;0.10;;;7.50;99.90;226.50;231333.00;;;;5031280;28;20219;-72
2022/03/30 04:32:50;;;;;;;0.10;0.10;;;7.50;99.90;226.50;231333.00;;;;5028850;28;20218;-71
2022/03/30 04:35:24;;;;;;;0.00;0.00;;;7.50;99.90;226.50;231333.00;;;;5033289;28;20313;-71
2022/03/30 04:37:54;;;;;;;0.10;0.10;;;7.40;99.90;226.50;231333.00;;;;5032720;28;20257;-72
2022/03/30 04:40:23;;;;;;;0.10;0.10;;;7.40;99.90;226.50;231333.00;;;;5034025;28;20214;-72
2022/03/30 04:42:52;;;;;;;0.10;0.10;;;7.40;99.90;226.50;231333.00;;;;5034249;28;20229;-72
2022/03/30 04:45:23;;;;;;;0.10;0.10;;;7.40;99.90;226.50;231333.00;;;;5034486;28;20205;-72
2022/03/30 04:47:53;;;;;;;0.10;0.10;;;7.40;99.90;226.50;231333.00;;;;5033969;28;20199;-72
2022/03/30 04:50:26;;;;;;;0.00;0.00;;;7.30;99.90;226.50;231333.00;;;;5031708;28;20187;-72
2022/03/30 04:52:56;;;;;;;0.10;0.10;;;7.20;99.90;226.50;231333.00;;;;5031965;28;20214;-71
2022/03/30 04:55:24;;;;;;;0.10;0.10;;;7.20;99.90;226.50;231333.00;;;;5047827;28;20722;-72
2022/03/30 04:57:52;;;;;;;0.10;0.10;;;7.20;1.00;226.50;231333.00;;;;5034013;28;20226;-71
2022/03/30 05:00:21;;;;;;;0.05;0.05;;;7.20;1.00;226.50;231333.00;;;;5034325;28;20683;-71
2022/03/30 05:02:50;;;;;;;0.10;0.10;;;7.20;1.00;226.50;231333.00;;;;5034424;28;20298;-71
2022/03/30 05:05:18;;;;;;;0.10;0.10;;;7.30;1.00;226.50;231333.00;;;;5031665;28;20270;-70
2022/03/30 05:07:46;;;;;;;0.10;0.10;;;7.30;1.00;226.50;231333.00;;;;5030115;28;20191;-71
2022/03/30 05:10:16;;;;;;;0.10;0.10;;;7.30;1.00;226.50;231333.00;;;;5034343;28;20187;-72
2022/03/30 05:12:44;;;;;;;0.10;0.10;;;7.20;1.00;226.50;231333.00;;;;5035277;28;20199;-72
2022/03/30 05:15:12;;;;;;;0.10;0.10;;;7.20;1.00;226.50;231333.00;;;;5034043;28;20195;-72
2022/03/30 05:17:45;;;;;;;0.00;0.00;;;7.20;1.00;226.50;231333.00;;;;5032881;28;20195;-71
2022/03/30 05:20:13;;;;;;;0.08;0.08;;;7.20;1.00;226.50;231333.00;;;;5030703;28;20199;-72
2022/03/30 05:22:42;;;;;;;0.10;0.10;;;7.20;1.00;226.50;231333.00;;;;5031688;28;20223;-71
2022/03/30 05:25:12;;;;;;;0.10;0.10;;;7.10;1.00;226.50;231333.00;;;;5032977;28;20195;-72
2022/03/30 05:27:41;;;;;;;0.10;0.10;;;7.10;1.00;226.50;231333.00;;;;5031415;28;20199;-70
2022/03/30 05:30:11;;;;;;;0.10;0.10;;;7.10;1.00;226.50;231333.00;;;;5032542;28;20199;-70
2022/03/30 05:32:44;;;;;;;0.10;0.10;;;7.00;1.00;226.50;231333.00;;;;5032439;28;20394;-70
2022/03/30 05:35:14;;;;;;;0.10;0.10;;;7.10;1.00;226.50;231333.00;;;;5033491;28;20195;-70
2022/03/30 05:37:46;;;;;;;0.10;0.10;;;7.10;1.00;226.50;231333.00;;;;5033376;28;20187;-70
2022/03/30 05:40:15;;;;;;;0.10;0.10;;;7.10;1.00;226.50;231333.00;;;;5025992;28;20572;-69
2022/03/30 05:42:43;;;;;;;0.10;0.10;;;7.10;1.00;226.50;231333.00;;;;5030832;28;20211;-70
2022/03/30 05:45:11;;;;;;;0.10;0.10;;;7.10;1.00;226.50;231333.00;;;;5032377;28;20687;-70
2022/03/30 05:47:42;;;;;;;0.10;0.10;;;7.10;1.00;226.50;231333.00;;;;5032845;28;20203;-70
2022/03/30 05:50:11;;;;;;;0.10;0.10;;;7.10;1.00;226.50;231333.00;;;;5033694;28;20214;-70
2022/03/30 05:52:39;;;;;;;0.00;0.00;;;7.00;1.00;226.50;231333.00;;;;5033152;28;20210;-70
2022/03/30 05:55:09;;;;;;;0.10;0.10;;;7.00;1.00;226.50;231333.00;;;;5032854;28;20195;-70
2022/03/30 05:57:38;;;;;;;0.00;0.00;;;7.00;1.00;226.50;231333.00;;;;5033962;28;20198;-70
2022/03/30 06:00:10;;;;;;;0.00;0.00;;;7.00;1.00;226.50;231333.00;;;;5033929;28;20189;-70
2022/03/30 06:02:42;;;;;;;0.10;0.10;;;7.10;1.00;226.50;231333.00;;;;5033164;28;20696;-70
2022/03/30 06:05:10;;;;;;;0.10;0.10;;;7.10;1.00;226.50;231333.00;;;;5029727;28;20199;-70
2022/03/30 06:07:38;;;;;;;0.10;0.10;;;7.10;1.00;226.50;231333.00;;;;5027063;28;20214;-70
2022/03/30 06:10:07;;;;;;;0.10;0.10;;;7.10;1.00;226.50;231333.00;;;;5035461;28;20206;-69
2022/03/30 06:12:35;;;;;;;0.10;0.10;;;7.20;1.00;226.50;231333.00;;;;5034681;28;20210;-70
2022/03/30 06:15:07;;;;;;;0.00;0.00;;;7.20;1.00;226.50;231333.00;;;;5034686;28;20203;-70
2022/03/30 06:17:35;;;;;;;0.00;0.00;;;7.10;1.00;226.50;231333.00;;;;5034063;28;20533;-70
2022/03/30 06:20:07;;;;;;;0.00;0.00;;;7.10;1.00;226.50;231333.00;;;;5034139;28;20195;-70
2022/03/30 06:22:36;;;;;;;0.10;0.10;;;7.10;1.00;226.50;231333.00;;;;5032414;28;20241;-70
2022/03/30 06:25:06;;;;;;;0.00;0.00;;;7.00;1.00;226.50;231333.00;;;;5033130;28;20207;-69
2022/03/30 06:27:34;;;;;;;0.00;0.00;;;7.10;1.00;226.50;231333.00;;;;5032623;28;20195;-70
2022/03/30 06:30:03;;;;;;;0.00;0.00;;;7.00;1.00;226.50;231333.00;;;;5033042;28;20203;-70
2022/03/30 06:32:31;;;;;;;0.10;0.10;;;7.00;1.00;226.50;231333.00;;;;5032837;28;20215;-69
2022/03/30 06:34:59;;;;;;;0.10;0.10;;;7.00;1.00;226.50;231333.00;;;;5033108;28;20536;-71
2022/03/30 06:37:28;;;;;;;0.10;0.10;;;7.00;1.00;226.50;231333.00;;;;5032913;28;20278;-70
2022/03/30 06:39:56;;;;;;;0.10;0.10;;;7.00;1.00;226.50;231333.00;;;;5032893;28;20576;-69
2022/03/30 06:42:25;;;;;;;0.10;0.10;;;6.90;1.00;226.50;231333.00;;;;5033217;28;20277;-70
2022/03/30 06:44:53;;;;;;;0.10;0.10;;;6.90;1.00;226.50;231333.00;;;;5032825;28;20210;-70
2022/03/30 06:47:21;;;;;;;0.10;0.10;;;6.80;1.00;226.50;231333.00;;;;5032490;28;20210;-72
2022/03/30 06:49:49;;;;;;;0.00;0.00;;;6.70;1.00;226.50;231333.00;;;;5032765;28;20191;-71
2022/03/30 06:52:17;;;;;;;0.10;0.10;;;6.70;1.00;226.50;231333.00;;;;5032712;28;20202;-70
2022/03/30 06:54:46;;;;;;;0.00;0.00;;;6.70;1.00;226.50;231333.00;;;;5031797;28;20218;-70
2022/03/30 06:57:14;;;;;;;0.00;0.00;;;6.70;1.00;226.50;231333.00;;;;5033327;28;20201;-70
2022/03/30 06:59:42;;;;;;;0.00;0.00;;;6.70;1.00;226.50;231333.00;;;;5034897;28;20206;-69
2022/03/30 07:02:11;;;;;;;0.10;0.10;;;6.80;1.00;226.50;231333.00;;;;5031558;28;20580;-70
2022/03/30 07:04:39;;;;;;;0.10;0.10;;;6.80;1.00;226.50;231333.00;;;;5032827;28;20225;-70
2022/03/30 07:12:40;;;;;;;0.10;0.10;;;6.80;1.00;226.50;231333.00;;;;5032494;28;20206;-70
2022/03/30 07:15:08;;;;;;;0.10;0.10;;;6.70;1.00;226.50;231333.00;;;;5032595;28;20218;-70
2022/03/30 07:17:47;;;;;;;0.10;0.10;;;6.70;1.00;226.50;231333.00;;;;5032434;28;20191;-70
2022/03/30 07:20:17;;;;;;;0.10;0.10;;;6.70;1.00;226.50;231333.00;;;;5032653;28;20202;-71
2022/03/30 07:22:54;;;;;;;0.15;0.15;;;6.70;1.00;12.80;88045.00;;;;5082352;27;20591;-71
2022/03/30 07:25:23;;;;;;;0.10;0.10;;;6.70;1.00;12.80;88045.00;;;;5069168;28;20204;-71
2022/03/30 07:27:54;;;;;;;0.10;0.10;;;6.70;1.00;12.80;88045.00;;;;5067955;28;20205;-71
2022/03/30 07:30:24;;;;;;;0.10;0.10;;;6.60;1.00;12.80;88045.00;;;;5068244;28;20194;-71
2022/03/30 07:32:55;;;;;;;0.10;0.10;;;6.60;1.00;12.80;88045.00;;;;5068045;28;20260;-72
2022/03/30 07:35:25;;;;;;;0.05;0.05;;;6.50;1.00;12.80;88045.00;;;;5068227;28;20190;-71
2022/03/30 07:37:56;;;;;;;0.10;0.10;;;6.60;8.10;12.80;88045.00;;;;5083685;28;20951;-71
2022/03/30 07:40:25;;;;;;;0.10;0.10;;;6.60;21.70;12.80;88045.00;;;;5067125;28;20198;-72
2022/03/30 07:42:55;;;;;;;0.10;0.10;;;6.60;1.00;12.80;88045.00;;;;5067748;28;20592;-71
2022/03/30 07:45:24;;;;;;;0.10;0.10;;;6.60;1.00;12.80;88045.00;;;;5068106;28;20204;-71
2022/03/30 07:47:52;;;;;;;0.10;0.10;;;6.60;1.00;12.80;88045.00;;;;5067138;28;20198;-71
2022/03/30 07:50:20;;;;;;;0.10;0.10;;;6.60;2.60;12.80;88045.00;;;;5068666;28;20601;-72
2022/03/30 07:52:50;;;;;;;0.10;0.10;;;6.60;14.20;12.80;88045.00;;;;5067519;28;20221;-71
2022/03/30 07:55:19;;;;;;;0.10;0.10;;;6.60;1.00;12.80;88045.00;;;;5068054;28;20204;-71
2022/03/30 07:57:48;;;;;;;0.10;0.10;;;6.60;1.00;12.80;88045.00;;;;5067524;28;20204;-71
2022/03/30 08:00:18;;;;;;;0.10;0.10;;;6.60;1.00;12.80;88045.00;;;;5067664;28;20182;-71
2022/03/30 08:02:47;;;;;;;0.05;0.05;;;6.70;7.30;12.80;88045.00;;;;5067427;28;20308;-71
2022/03/30 08:05:17;;;;;;;0.10;0.10;;;6.70;17.70;12.80;88045.00;;;;5067819;28;20217;-71
2022/03/30 08:07:49;;;;;;;0.10;0.10;;;6.70;10.90;12.80;88045.00;;;;5067279;28;20205;-71
2022/03/30 08:10:19;;;;;;;0.10;0.10;;;6.70;10.40;12.80;88045.00;;;;5067802;28;20181;-71
2022/03/30 08:12:48;;;;;;;0.10;0.10;;;6.70;21.80;12.80;88045.00;;;;5068324;28;20316;-72
2022/03/30 08:15:16;;;;;;;0.10;0.10;;;6.70;52.30;12.80;88045.00;;;;5069372;28;20202;-71
2022/03/30 08:17:45;;;;;;;0.05;0.05;;;6.70;64.70;12.80;88045.00;;;;5068124;28;20217;-71
2022/03/30 08:22:25;;;;;;;0.00;0.00;;;6.70;39.60;12.80;88045.00;;;;5070829;28;20292;-71
2022/03/30 08:23:01;;;;;;;0.10;0.10;;;6.70;51.80;12.80;88045.00;;;;5071478;28;20651;-71
2022/03/30 08:25:31;;;;;;;0.13;0.13;;;6.80;60.90;12.80;88045.00;;;;5071088;28;20197;-71
2022/03/30 08:27:59;;;;;;;0.10;0.10;;;6.80;55.10;12.80;88045.00;;;;5070204;28;20198;-71
2022/03/30 08:30:28;;;;;;;0.10;0.10;;;6.70;12.90;12.80;88045.00;;;;5071589;28;20206;-71
2022/03/30 08:32:56;;;;;;;0.10;0.10;;;6.70;40.90;12.80;88045.00;;;;5065076;28;20252;-72
2022/03/30 08:35:26;;;;;;;0.10;0.10;;;6.80;81.20;12.80;88045.00;;;;5058667;28;20190;-71
2022/03/30 08:37:54;;;;;;;0.05;0.05;;;6.80;97.60;12.80;88045.00;;;;5057360;28;20675;-72
2022/03/30 08:40:23;;;;;;;0.10;0.10;;;6.90;90.70;12.80;88045.00;;;;5058186;28;20194;-72
2022/03/30 08:42:55;;;;;;;0.10;0.10;;;7.00;27.10;12.80;88045.00;;;;5054315;28;20226;-71
2022/03/30 08:45:24;;;;;;;0.03;0.03;;;7.00;21.90;12.80;88045.00;;;;5054167;28;20187;-71
2022/03/30 08:47:52;;;;;;;0.10;0.10;;;7.00;19.80;12.80;88045.00;;;;5054048;28;20648;-71
2022/03/30 08:50:21;;;;;;;0.00;0.00;;;7.00;1.00;12.80;88045.00;;;;5053812;28;20201;-72
2022/03/30 08:52:51;;;;;;;0.10;0.10;;;7.00;1.00;12.80;88045.00;;;;5053526;28;20728;-71
2022/03/30 08:55:19;;;;;;;0.10;0.10;;;7.00;6.20;12.80;88045.00;;;;5053768;28;20186;-71
2022/03/30 08:57:47;;;;;;;0.10;0.10;;;7.00;25.90;12.80;88045.00;;;;5053625;28;20186;-72
2022/03/30 09:00:19;;;;;;;0.00;0.00;;;7.00;8.00;12.80;88045.00;;;;5054108;28;20252;-71
2022/03/30 09:02:55;;;;;;;0.10;0.10;;;7.00;11.60;12.80;88045.00;;;;5052405;28;20256;-72
2022/03/30 09:05:27;;;;;;;0.10;0.10;;;6.90;13.60;12.80;88045.00;;;;5054083;28;20659;-72
2022/03/30 09:08:08;;;;;;;0.10;0.10;;;7.00;45.10;12.80;88045.00;;;;5053293;28;20202;-72
2022/03/30 09:10:37;;;;;;;0.10;0.10;;;7.00;38.00;12.80;88045.00;;;;5053571;28;20198;-72
2022/03/30 09:13:07;;;;;;;0.10;0.10;;;7.10;54.90;12.80;88045.00;;;;5052763;28;20232;-72
2022/03/30 09:15:39;;;;;;;0.10;0.10;;;7.10;31.20;12.80;88045.00;;;;5053834;28;20690;-72
2022/03/30 09:18:10;;;;;;;0.10;0.10;;;7.10;47.50;12.80;88045.00;;;;5054011;28;20199;-72
2022/03/30 09:20:41;;;;;;;0.10;0.10;;;7.10;56.70;12.80;88045.00;;;;5053563;28;20198;-72
2022/03/30 09:23:14;;;;;;;0.10;0.10;;;7.10;24.50;12.80;88045.00;;;;5053469;28;20243;-72
2022/03/30 09:25:47;;;;;;;0.10;0.10;;;7.10;61.80;12.80;88045.00;;;;5053181;28;20197;-72
2022/03/30 09:28:17;;;;;;;0.10;0.10;;;7.20;96.40;12.80;88045.00;;;;5053664;28;20660;-73
2022/03/30 09:30:48;;;;;;;0.10;0.10;;;7.20;89.10;12.80;88045.00;;;;5059923;28;20218;-72
2022/03/30 09:33:19;;;;;;;0.10;0.10;;;7.20;96.40;12.80;88045.00;;;;5062044;28;20725;-73
2022/03/30 09:35:48;;;;;;;0.10;0.10;;;7.10;99.90;12.80;88045.00;;;;5061711;28;20218;-72
2022/03/30 09:38:19;;;;;;;0.10;0.10;;;7.10;99.90;12.80;88045.00;;;;5061452;28;20232;-73
2022/03/30 09:40:50;;;;;;;0.10;0.10;;;7.10;99.90;12.80;88045.00;;;;5062161;28;20209;-71
2022/03/30 09:43:22;;;;;;;0.10;0.10;;;7.10;99.90;12.80;88045.00;;;;5061321;28;20232;-71
2022/03/30 09:46:06;;;;;;;0.08;0.08;;;6.90;99.90;12.80;88045.00;;;;5051844;28;20226;-71
2022/03/30 09:48:39;;;;;;;0.10;0.10;;;6.80;99.90;12.80;88045.00;;;;5052565;28;20530;-71
2022/03/30 09:51:08;;;;;;;0.10;0.10;;;6.80;99.90;12.80;88045.00;;;;5052951;28;20194;-73
2022/03/30 09:53:38;;;;;;;0.10;0.10;;;6.70;99.90;12.80;88045.00;;;;5052362;28;20218;-71
2022/03/30 09:56:09;;;;;;;0.10;0.10;;;6.70;99.90;12.80;88045.00;;;;5052977;28;20660;-70
2022/03/30 09:58:39;;;;;;;0.10;0.10;;;6.70;99.90;12.80;88045.00;;;;5052490;28;20195;-71
2022/03/30 10:01:19;;;;;;;0.10;0.10;;;6.70;99.90;12.80;88045.00;;;;5052899;28;20191;-73
2022/03/30 10:03:52;;;;;;;0.10;0.10;;;6.60;99.90;12.80;88045.00;;;;5052556;28;20218;-73
2022/03/30 10:06:24;;;;;;;0.10;0.10;;;6.60;99.90;12.80;88045.00;;;;5052998;28;20194;-71
2022/03/30 10:08:53;;;;;;;0.10;0.10;;;6.60;99.90;12.80;88045.00;;;;5053515;28;20615;-74
2022/03/30 10:11:23;;;;;;;0.10;0.10;;;6.60;99.90;12.80;88045.00;;;;5052723;28;20494;-71
2022/03/30 10:13:54;;;;;;;0.00;0.00;;;6.60;99.90;12.80;88045.00;;;;5052396;28;20218;-71
2022/03/30 10:16:43;;;;;;;0.10;0.10;;;6.70;99.90;12.80;88045.00;;;;5052200;28;20603;-71
2022/03/30 10:19:11;;;;;;;0.10;0.10;;;6.70;99.90;12.80;88045.00;;;;5051140;28;20187;-71
2022/03/30 10:21:54;;;;;;;0.10;0.10;;;6.70;99.90;12.80;88045.00;;;;5052093;28;20561;-70
2022/03/30 10:24:47;;;;;;;0.10;0.10;;;6.80;99.90;12.80;88045.00;;;;5052498;28;20232;-73
2022/03/30 10:27:28;;;;;;;0.08;0.08;;;6.80;99.90;12.80;88045.00;;;;5052429;28;20201;-73
2022/03/30 10:30:02;;;;;;;0.03;0.03;;;6.80;99.90;12.80;88045.00;;;;5052839;28;20197;-71
2022/03/30 10:32:35;;;;;;;0.10;0.10;;;6.80;99.90;12.80;88045.00;;;;5052172;28;20202;-71
2022/03/30 10:35:09;;;;;;;0.10;0.10;;;6.90;99.90;12.80;88045.00;;;;5052237;28;20199;-71
2022/03/30 10:37:42;;;;;;;0.10;0.10;;;6.90;99.90;12.80;88045.00;;;;5051603;28;20205;-71
2022/03/30 10:40:20;;;;;;;0.10;0.10;;;6.80;99.90;12.80;88045.00;;;;5052233;28;20220;-70
2022/03/30 10:43:02;;;;;;;0.10;0.10;;;6.90;99.90;12.80;88045.00;;;;5051159;28;20226;-70
2022/03/30 10:45:50;;;;;;;0.10;0.10;;;6.80;99.90;12.80;88045.00;;;;5051157;28;20222;-70
2022/03/30 10:48:23;;;;;;;0.10;0.10;;;6.80;99.90;12.80;88045.00;;;;5052144;28;20252;-71
2022/03/30 10:50:55;;;;;;;0.10;0.10;;;6.70;99.90;12.80;88045.00;;;;5051786;28;20676;-71
2022/03/30 10:53:46;;;;;;;0.10;0.10;;;6.70;99.90;12.80;88045.00;;;;5051734;28;20225;-71
2022/03/30 10:56:49;;;;;;;0.10;0.10;;;6.70;1.00;12.80;88045.00;;;;5051342;28;20727;-71
2022/03/30 10:59:18;;;;;;;0.10;0.10;;;6.70;99.90;12.80;88045.00;;;;5051774;28;20660;-71
2022/03/30 11:01:48;;;;;;;0.10;0.10;;;6.70;99.90;12.80;88045.00;;;;5051706;28;20186;-71
2022/03/30 11:04:35;;;;;;;0.10;0.10;;;6.70;99.90;12.80;88045.00;;;;5050623;28;20707;-71
2022/03/30 11:07:31;;;;;;;0.10;0.10;;;6.60;99.90;12.80;88045.00;;;;5050907;28;20205;-72
2022/03/30 11:10:31;;;;;;;0.10;0.10;;;6.60;99.90;12.80;88045.00;;;;5051040;28;20201;-72
2022/03/30 11:13:11;;;;;;;0.10;0.10;;;6.50;99.90;12.80;88045.00;;;;5009694;28;20298;-72
2022/03/30 11:16:11;;;;;;;0.10;0.10;;;6.60;1.00;12.80;88045.00;;;;5028987;28;20257;-71
2022/03/30 11:19:02;;;;;;;0.10;0.10;;;6.60;1.00;12.80;88045.00;;;;5036108;28;20273;-71